Terminal Aerodrome Forecast
Issued by NWS Cleveland, OH

Home | Current Version | Previous Version | Text Only | Print | Product List | Glossary Off
Versions: 1 2 3 4 5 6 7 8 9 10 11 12 13 14 15

000
FTUS41 KCLE 151728
TAFERI
TAF
KERI 151728Z 1518/1618 17010G18KT P6SM SCT120 BKN250
     FM160000 18018G28KT 6SM -RA BR BKN030 OVC050
     FM160300 20018G28KT 5SM -RA BR SCT007 OVC015
     FM160600 24018G28KT P6SM VCSH SCT007 OVC015
     FM161500 28020G30KT P6SM VCSH OVC015=

USA.gov is the U.S. government's official web portal to all federal, state and local government web resources and services.